createdAt,value
2023-03-22T00:01:22.220Z,17.77
2023-03-22T00:03:50.167Z,17.67
2023-03-22T00:06:17.610Z,17.75
2023-03-22T00:08:45.507Z,19.48
2023-03-22T00:11:13.004Z,17.83
2023-03-22T00:13:43.026Z,21.67
2023-03-22T00:16:11.195Z,18.35
2023-03-22T00:18:38.525Z,20.05
2023-03-22T00:21:06.135Z,20.27
2023-03-22T00:23:33.046Z,19.08
2023-03-22T00:25:59.967Z,20.50
2023-03-22T00:28:27.202Z,21.23
2023-03-22T00:31:01.801Z,21.70
2023-03-22T00:33:30.477Z,22.45
2023-03-22T00:36:09.215Z,22.05
2023-03-22T00:38:44.074Z,22.13
2023-03-22T00:41:16.850Z,24.58
2023-03-22T00:43:45.280Z,26.55
2023-03-22T00:46:13.524Z,24.13
2023-03-22T00:48:40.972Z,26.38
2023-03-22T00:51:08.933Z,27.90
2023-03-22T00:53:37.554Z,24.58
2023-03-22T00:56:06.166Z,25.08
2023-03-22T00:58:43.827Z,26.40
2023-03-22T01:01:14.257Z,27.50
2023-03-22T01:03:42.539Z,27.67
2023-03-22T01:06:10.632Z,28.88
2023-03-22T01:08:39.058Z,27.63
2023-03-22T01:11:07.331Z,29.02
2023-03-22T01:13:37.627Z,30.98
2023-03-22T01:16:06.186Z,29.10
2023-03-22T01:18:34.189Z,33.05
2023-03-22T01:21:02.006Z,30.27
2023-03-22T01:23:29.545Z,31.23
2023-03-22T01:25:56.572Z,29.25
2023-03-22T01:28:26.414Z,29.58
2023-03-22T01:30:54.751Z,30.98
2023-03-22T01:33:22.005Z,27.45
2023-03-22T01:35:49.832Z,30.00
2023-03-22T01:38:17.249Z,32.40
2023-03-22T01:40:52.727Z,31.73
2023-03-22T01:43:20.220Z,31.67
2023-03-22T01:45:51.836Z,33.00
2023-03-22T01:48:35.019Z,31.75
2023-03-22T01:51:09.549Z,28.40
2023-03-22T01:53:55.376Z,28.33
2023-03-22T01:56:24.257Z,31.25
2023-03-22T01:58:52.772Z,33.15
2023-03-22T02:01:25.838Z,33.53
2023-03-22T02:04:04.816Z,33.92
2023-03-22T02:06:32.495Z,31.88
2023-03-22T02:09:06.627Z,31.13
2023-03-22T02:11:35.927Z,32.13
2023-03-22T02:14:23.485Z,30.48
2023-03-22T02:17:35.526Z,29.45
2023-03-22T02:20:38.722Z,29.85
2023-03-22T02:23:31.756Z,33.65
2023-03-22T02:26:39.398Z,26.92
2023-03-22T02:29:35.748Z,27.40
2023-03-22T02:32:27.630Z,29.25
2023-03-22T02:35:19.032Z,33.70
2023-03-22T02:38:14.696Z,30.45
2023-03-22T02:40:59.206Z,32.65
2023-03-22T02:43:41.664Z,31.75
2023-03-22T02:46:17.996Z,31.08
2023-03-22T02:49:13.749Z,31.33
2023-03-22T02:51:44.008Z,32.25
2023-03-22T02:54:22.865Z,35.00
2023-03-22T02:56:56.918Z,34.55
2023-03-22T02:59:25.533Z,37.92
2023-03-22T03:01:55.422Z,37.40
2023-03-22T03:04:28.813Z,40.45
2023-03-22T03:07:01.991Z,39.10
2023-03-22T03:09:31.386Z,34.08
2023-03-22T03:12:00.137Z,40.13
2023-03-22T03:14:29.898Z,38.95
2023-03-22T03:17:24.865Z,36.88
2023-03-22T03:20:32.149Z,39.67
2023-03-22T03:23:40.746Z,42.58
2023-03-22T03:26:47.009Z,40.97
2023-03-22T03:29:33.366Z,41.53
2023-03-22T03:32:07.954Z,48.67
2023-03-22T03:34:45.727Z,47.35
2023-03-22T03:37:17.474Z,48.40
2023-03-22T03:39:50.785Z,50.75
2023-03-22T03:42:18.631Z,50.42
2023-03-22T03:44:46.404Z,50.05
2023-03-22T03:47:13.356Z,51.13
2023-03-22T03:49:40.269Z,56.28
2023-03-22T03:52:07.169Z,58.13
2023-03-22T03:54:34.264Z,56.88
2023-03-22T03:57:03.979Z,57.92
2023-03-22T03:59:31.190Z,59.42
2023-03-22T04:02:00.557Z,62.33
2023-03-22T04:04:31.232Z,64.28
2023-03-22T04:07:04.344Z,65.18
2023-03-22T04:09:35.673Z,59.33
2023-03-22T04:12:13.690Z,68.45
2023-03-22T04:14:43.374Z,68.18
2023-03-22T04:17:19.049Z,65.57
2023-03-22T04:19:46.892Z,68.63
2023-03-22T04:22:18.567Z,69.97
2023-03-22T04:24:50.252Z,69.40
2023-03-22T04:27:21.287Z,68.95
2023-03-22T04:29:54.800Z,65.13
2023-03-22T04:32:42.909Z,67.95
2023-03-22T04:35:10.352Z,68.70
2023-03-22T04:37:37.263Z,66.47
2023-03-22T04:40:17.410Z,68.95
2023-03-22T04:42:59.056Z,64.13
2023-03-22T04:45:42.200Z,68.35
2023-03-22T04:48:11.450Z,66.40
2023-03-22T04:50:40.569Z,68.53
2023-03-22T04:53:08.357Z,60.58
2023-03-22T04:55:35.537Z,64.15
2023-03-22T04:58:02.558Z,67.22
2023-03-22T05:00:30.453Z,63.53
2023-03-22T05:02:59.102Z,66.65
2023-03-22T05:05:36.512Z,65.68
2023-03-22T05:08:04.445Z,64.65
2023-03-22T05:10:31.368Z,62.13
2023-03-22T05:12:58.892Z,61.03
2023-03-22T05:15:32.624Z,61.53
2023-03-22T05:18:01.977Z,62.45
2023-03-22T05:20:28.764Z,65.38
2023-03-22T05:23:07.571Z,60.85
2023-03-22T05:25:34.700Z,56.72
2023-03-22T05:28:02.167Z,58.63
2023-03-22T05:30:50.027Z,60.35
2023-03-22T05:33:24.322Z,58.40
2023-03-22T05:35:55.622Z,60.67
2023-03-22T05:38:24.738Z,59.08
2023-03-22T05:43:22.790Z,56.00
2023-03-22T05:45:51.069Z,54.55
2023-03-22T05:48:39.211Z,59.28
2023-03-22T05:51:08.180Z,55.53
2023-03-22T05:53:35.818Z,56.58
2023-03-22T05:56:24.658Z,57.47
2023-03-22T05:59:00.141Z,59.30
2023-03-22T06:01:27.360Z,57.08
2023-03-22T06:04:14.117Z,54.92
2023-03-22T06:06:53.987Z,57.38
2023-03-22T06:09:41.675Z,60.22
2023-03-22T06:12:13.190Z,62.13
2023-03-22T06:14:40.870Z,64.10
2023-03-22T06:17:16.318Z,64.90
2023-03-22T06:19:44.317Z,66.82
2023-03-22T06:22:13.901Z,64.13
2023-03-22T06:24:42.438Z,62.92
2023-03-22T06:27:13.475Z,67.90
2023-03-22T06:29:41.136Z,63.47
2023-03-22T06:32:08.574Z,67.47
2023-03-22T06:34:35.798Z,71.03
2023-03-22T06:37:03.234Z,67.72
2023-03-22T06:39:36.845Z,69.18
2023-03-22T06:42:03.893Z,63.53
2023-03-22T06:44:31.344Z,72.28
2023-03-22T06:47:16.323Z,70.25
2023-03-22T06:49:55.397Z,68.70
2023-03-22T06:52:26.593Z,72.20
2023-03-22T06:54:53.621Z,71.53
2023-03-22T06:57:20.899Z,71.35
2023-03-22T06:59:47.752Z,71.90
2023-03-22T07:02:15.069Z,75.50
2023-03-22T07:04:54.583Z,66.43
2023-03-22T07:07:21.883Z,66.43
2023-03-22T07:09:50.014Z,68.93
2023-03-22T07:12:18.697Z,67.55
2023-03-22T07:14:46.108Z,70.85
2023-03-22T07:17:33.021Z,69.05
2023-03-22T07:20:00.621Z,70.20
2023-03-22T07:22:28.205Z,65.10
2023-03-22T07:24:58.257Z,50.95
2023-03-22T07:27:27.652Z,51.97
2023-03-22T07:29:54.964Z,50.60
2023-03-22T07:32:22.589Z,56.22
2023-03-22T07:34:58.321Z,50.70
2023-03-22T07:37:25.930Z,51.45
2023-03-22T07:39:52.844Z,45.47
2023-03-22T07:42:20.056Z,42.45
2023-03-22T07:45:07.506Z,45.83
2023-03-22T07:47:54.444Z,44.63
2023-03-22T07:50:42.313Z,36.67
2023-03-22T07:53:10.477Z,41.28
2023-03-22T07:55:38.563Z,37.35
2023-03-22T07:58:06.291Z,35.25
2023-03-22T08:00:33.371Z,33.72
2023-03-22T08:03:22.432Z,32.97
2023-03-22T08:06:08.182Z,34.38
2023-03-22T08:08:37.047Z,35.20
2023-03-22T08:11:08.476Z,32.45
2023-03-22T08:13:36.065Z,36.67
2023-03-22T08:16:03.125Z,35.88
2023-03-22T08:18:31.677Z,33.08
2023-03-22T08:21:00.100Z,34.35
2023-03-22T08:23:41.100Z,33.87
2023-03-22T08:26:28.773Z,34.25
2023-03-22T08:29:00.825Z,31.40
2023-03-22T08:31:30.832Z,30.52
2023-03-22T08:33:58.743Z,31.42
2023-03-22T08:36:26.065Z,31.83
2023-03-22T08:38:59.261Z,38.35
2023-03-22T08:41:39.206Z,37.60
2023-03-22T08:44:07.080Z,147.48
2023-03-22T08:46:35.437Z,83.95
2023-03-22T08:49:03.517Z,26.83
2023-03-22T08:51:35.656Z,28.95
2023-03-22T08:54:13.819Z,25.60
2023-03-22T08:57:00.800Z,21.38
2023-03-22T08:59:48.775Z,26.02
2023-03-22T09:02:27.484Z,43.08
2023-03-22T09:04:56.677Z,28.40
2023-03-22T09:07:24.444Z,25.48
2023-03-22T09:10:02.531Z,28.58
2023-03-22T09:12:29.883Z,20.13
2023-03-22T09:14:57.070Z,20.02
2023-03-22T09:17:26.493Z,19.67
2023-03-22T09:20:05.844Z,19.02
2023-03-22T09:22:38.449Z,19.25
2023-03-22T09:25:06.467Z,19.27
2023-03-22T09:27:33.825Z,22.00
2023-03-22T09:30:00.887Z,23.02
2023-03-22T09:32:27.918Z,21.02
2023-03-22T09:37:34.413Z,21.05
2023-03-22T09:40:01.665Z,21.00
2023-03-22T09:42:39.765Z,20.27
2023-03-22T09:45:15.702Z,23.58
2023-03-22T09:47:51.849Z,18.42
2023-03-22T09:50:24.989Z,19.67
2023-03-22T09:52:52.950Z,19.50
2023-03-22T09:55:30.609Z,20.23
2023-03-22T09:58:06.416Z,17.92
2023-03-22T10:00:56.764Z,17.17
2023-03-22T10:03:59.767Z,19.85
2023-03-22T10:06:29.400Z,20.90
2023-03-22T10:09:22.524Z,19.98
2023-03-22T10:12:00.384Z,17.17
2023-03-22T10:14:41.793Z,15.55
2023-03-22T10:17:13.564Z,15.43
2023-03-22T10:20:17.494Z,16.50
2023-03-22T10:22:45.385Z,18.02
2023-03-22T10:25:17.889Z,16.98
2023-03-22T10:27:47.253Z,14.95
2023-03-22T10:30:24.455Z,15.88
2023-03-22T10:33:01.839Z,15.07
2023-03-22T10:35:30.587Z,15.27
2023-03-22T10:38:03.000Z,20.17
2023-03-22T10:40:32.927Z,16.92
2023-03-22T10:43:28.621Z,16.55
2023-03-22T10:45:56.758Z,21.00
2023-03-22T10:48:33.279Z,17.23
2023-03-22T10:51:01.046Z,14.23
2023-03-22T10:53:44.368Z,14.90
2023-03-22T10:56:16.948Z,16.02
2023-03-22T10:58:44.038Z,14.30
2023-03-22T11:01:13.637Z,15.13
2023-03-22T11:03:42.949Z,15.93
2023-03-22T11:06:14.077Z,16.00
2023-03-22T11:08:48.770Z,14.88
2023-03-22T11:11:35.491Z,14.27
2023-03-22T11:14:28.172Z,13.40
2023-03-22T11:17:01.069Z,13.98
2023-03-22T11:19:34.398Z,14.35
2023-03-22T11:22:04.076Z,14.05
2023-03-22T11:24:32.734Z,14.93
2023-03-22T11:27:26.019Z,15.73
2023-03-22T11:29:57.274Z,15.20
2023-03-22T11:32:36.227Z,16.20
2023-03-22T11:35:27.143Z,14.68
2023-03-22T11:37:56.160Z,14.75
2023-03-22T11:40:28.786Z,17.83
2023-03-22T11:43:02.187Z,16.75
2023-03-22T11:45:31.907Z,15.30
2023-03-22T11:48:05.637Z,14.75
2023-03-22T11:50:35.596Z,17.23
2023-03-22T11:53:04.254Z,14.15
2023-03-22T11:55:32.053Z,15.35
2023-03-22T11:57:58.962Z,20.10
2023-03-22T12:00:28.207Z,15.82
2023-03-22T12:03:03.162Z,16.67
2023-03-22T12:05:32.435Z,13.80
2023-03-22T12:08:04.081Z,14.75
2023-03-22T12:10:42.001Z,14.50
2023-03-22T12:13:22.872Z,14.65
2023-03-22T12:15:58.956Z,12.82
2023-03-22T12:18:30.830Z,13.93
2023-03-22T12:20:59.576Z,14.98
2023-03-22T12:23:29.467Z,14.40
2023-03-22T12:26:16.733Z,14.48
2023-03-22T12:29:08.271Z,14.18
2023-03-22T12:31:45.106Z,15.57
2023-03-22T12:34:18.438Z,15.07
2023-03-22T12:36:54.938Z,16.08
2023-03-22T12:39:32.029Z,17.98
2023-03-22T12:42:04.398Z,21.25
2023-03-22T12:44:37.703Z,15.80
2023-03-22T12:47:15.407Z,15.93
2023-03-22T12:49:49.749Z,17.33
2023-03-22T12:52:29.784Z,16.45
2023-03-22T12:55:00.826Z,15.82
2023-03-22T12:57:28.160Z,19.10
2023-03-22T12:59:57.916Z,15.95
2023-03-22T13:02:30.360Z,16.65
2023-03-22T13:05:05.097Z,15.75
2023-03-22T13:07:39.369Z,15.75
2023-03-22T13:10:39.677Z,19.27
2023-03-22T13:13:34.459Z,18.17
2023-03-22T13:16:22.868Z,17.02
2023-03-22T13:19:00.026Z,15.43
2023-03-22T13:21:29.969Z,15.57
2023-03-22T13:24:20.635Z,15.32
2023-03-22T13:26:51.630Z,17.30
2023-03-22T13:29:39.947Z,15.83
2023-03-22T13:32:25.525Z,14.95
2023-03-22T13:34:53.237Z,17.23
2023-03-22T13:37:31.671Z,16.45
2023-03-22T13:40:02.404Z,17.40
2023-03-22T13:42:38.606Z,18.85
2023-03-22T13:45:17.797Z,24.77
2023-03-22T13:47:46.831Z,15.90
2023-03-22T13:50:28.328Z,19.85
2023-03-22T13:53:07.516Z,16.13
2023-03-22T13:55:59.836Z,41.78
2023-03-22T13:58:51.307Z,21.23
2023-03-22T14:01:29.183Z,18.52
2023-03-22T14:04:01.349Z,22.00
2023-03-22T14:06:32.002Z,17.52
2023-03-22T14:09:02.358Z,15.60
2023-03-22T14:11:38.155Z,15.93
2023-03-22T14:14:10.826Z,16.05
2023-03-22T14:16:44.703Z,18.73
2023-03-22T14:19:20.821Z,16.58
